Messages of MTHOOD - map view · info · telemetry · weather · raw · status · beacons · messages · bulletins · browse · moving · my account
Callsign:
Show:

Loading message packets...

APRS messages are stored for 14 days. It is possible to search using wildcards (*?) after a prefix.

2019-06-18 08:23:14 EDT: MTHOOD>N7QME: hum 55 10 75
2019-06-18 09:00:09 EDT: MTHOOD>N7QME: temps 61.6 95.8 55.6
2019-06-18 09:19:49 EDT: MTHOOD>N7QME: hum 55 10 77
2019-06-18 09:53:28 EDT: MTHOOD>N7QME: temps 61.4 95.7 55.3
2019-06-18 10:11:27 EDT: MTHOOD>N7QME: hum 55 11 79
2019-06-18 10:45:54 EDT: MTHOOD>N7QME: temps 61.3 95.7 55.1
2019-06-18 11:02:04 EDT: MTHOOD>N7QME: hum 55 12 79
2019-06-18 11:37:44 EDT: MTHOOD>N7QME: temps 61.2 95.6 54.8
2019-06-18 11:53:37 EDT: MTHOOD>N7QME: hum 55 14 79
2019-06-18 12:30:24 EDT: MTHOOD>N7QME: temps 61.0 95.6 54.4
2019-06-18 12:47:44 EDT: MTHOOD>N7QME: hum 55 15 81
2019-06-18 13:22:14 EDT: MTHOOD>N7QME: temps 60.8 95.6 54.6
2019-06-18 13:40:02 EDT: MTHOOD>N7QME: hum 55 12 82
2019-06-18 14:12:59 EDT: MTHOOD>N7QME: temps 60.8 95.6 54.6
2019-06-18 14:31:29 EDT: MTHOOD>N7QME: hum 55 13 82
2019-06-18 15:07:24 EDT: MTHOOD>N7QME: temps 60.7 96.6 55.0
2019-06-18 15:25:49 EDT: MTHOOD>N7QME: hum 56 12 80
2019-06-18 16:02:49 EDT: MTHOOD>N7QME: temps 60.6 96.7 55.5
2019-06-18 16:22:34 EDT: MTHOOD>N7QME: hum 56 10 77
2019-06-18 16:55:17 EDT: MTHOOD>N7QME: temps 60.6 96.6 57.0
2019-06-18 17:11:44 EDT: MTHOOD>N7QME: hum 56 10 74
2019-06-18 17:45:24 EDT: MTHOOD>N7QME: temps 60.6 96.7 57.9
2019-06-18 18:03:19 EDT: MTHOOD>N7QME: hum 56 11 72
2019-06-18 18:39:14 EDT: MTHOOD>N7QME: temps 60.6 96.7 59.4
2019-06-18 18:57:10 EDT: MTHOOD>N7QME: hum 56 13 67
2019-06-18 19:34:53 EDT: MTHOOD>N7QME: temps 60.7 96.7 60.0
2019-06-18 19:51:39 EDT: MTHOOD>N7QME: hum 55 14 64
2019-06-18 20:28:09 EDT: MTHOOD>N7QME: temps 60.7 96.5 59.8
2019-06-18 20:45:14 EDT: MTHOOD>N7QME: hum 55 15 63
2019-06-18 21:22:19 EDT: MTHOOD>N7QME: temps 60.8 96.4 59.4
2019-06-18 21:40:04 EDT: MTHOOD>N7QME: hum 55 12 63
2019-06-18 22:17:14 EDT: MTHOOD>N7QME: temps 61.6 96.2 58.8
2019-06-18 22:35:34 EDT: MTHOOD>N7QME: hum 55 11 64
2019-06-18 23:12:24 EDT: MTHOOD>N7QME: temps 62.4 96.1 58.3
2019-06-18 23:32:09 EDT: MTHOOD>N7QME: hum 56 12 66
2019-06-19 00:06:34 EDT: MTHOOD>N7QME: temps 62.7 95.9 57.7
2019-06-19 00:25:14 EDT: MTHOOD>N7QME: hum 55 10 67
2019-06-19 01:02:24 EDT: MTHOOD>N7QME: temps 63.0 95.8 57.0
2019-06-19 01:21:39 EDT: MTHOOD>N7QME: hum 54 10 69
2019-06-19 02:00:19 EDT: MTHOOD>N7QME: temps 63.4 95.6 56.2
2019-06-19 02:19:49 EDT: MTHOOD>N7QME: hum 55 11 69
2019-06-19 02:54:21 EDT: MTHOOD>N7QME: temps 63.5 95.5 55.2
2019-06-19 03:11:09 EDT: MTHOOD>N7QME: hum 54 12 70
2019-06-19 03:47:09 EDT: MTHOOD>N7QME: temps 63.5 95.2 54.0
2019-06-19 04:04:29 EDT: MTHOOD>N7QME: hum 54 14 69
2019-06-19 04:39:14 EDT: MTHOOD>N7QME: temps 63.4 96.0 52.9
2019-06-19 04:55:37 EDT: MTHOOD>N7QME: hum 54 15 68
2019-06-19 05:32:09 EDT: MTHOOD>N7QME: temps 63.2 95.7 51.8
2019-06-19 05:49:34 EDT: MTHOOD>N7QME: hum 53 12 69
2019-06-19 06:25:01 EDT: MTHOOD>N7QME: temps 62.9 95.3 50.7
< previous
FAQ · Blog · Discussion group · Linking to aprs.fi · AIS sites · Service status · Database statistics · Advertising on aprs.fi · Technical details · API · Change log · Planned changes · Credits and thanks · Terms Of Service · iPhone/iPad APRS